sensor_id;sensor_type;location;lat;lon;timestamp;P1;durP1;ratioP1;P2;durP2;ratioP2
64885;SDS011;51514;52.206;5.114;2022-07-04T00:00:17;8.68;;;5.40;;
64885;SDS011;51514;52.206;5.114;2022-07-04T00:02:44;10.35;;;5.10;;
64885;SDS011;51514;52.206;5.114;2022-07-04T00:05:11;13.13;;;5.63;;
64885;SDS011;51514;52.206;5.114;2022-07-04T00:07:41;7.35;;;4.60;;
64885;SDS011;51514;52.206;5.114;2022-07-04T00:10:09;7.70;;;4.72;;
64885;SDS011;51514;52.206;5.114;2022-07-04T00:12:35;8.93;;;4.72;;
64885;SDS011;51514;52.206;5.114;2022-07-04T00:15:01;8.52;;;5.32;;
64885;SDS011;51514;52.206;5.114;2022-07-04T00:17:28;8.20;;;5.57;;
64885;SDS011;51514;52.206;5.114;2022-07-04T00:19:54;7.47;;;4.85;;
64885;SDS011;51514;52.206;5.114;2022-07-04T00:22:19;7.60;;;4.97;;
64885;SDS011;51514;52.206;5.114;2022-07-04T00:24:44;6.60;;;4.93;;
64885;SDS011;51514;52.206;5.114;2022-07-04T00:27:10;8.57;;;5.10;;
64885;SDS011;51514;52.206;5.114;2022-07-04T00:29:35;7.75;;;4.90;;
64885;SDS011;51514;52.206;5.114;2022-07-04T00:32:00;7.93;;;4.97;;
64885;SDS011;51514;52.206;5.114;2022-07-04T00:34:26;8.13;;;5.40;;
64885;SDS011;51514;52.206;5.114;2022-07-04T00:36:52;8.55;;;5.15;;
64885;SDS011;51514;52.206;5.114;2022-07-04T00:39:17;9.38;;;4.90;;
64885;SDS011;51514;52.206;5.114;2022-07-04T00:41:43;6.35;;;4.65;;
64885;SDS011;51514;52.206;5.114;2022-07-04T00:44:09;7.18;;;4.85;;
64885;SDS011;51514;52.206;5.114;2022-07-04T00:46:36;11.80;;;5.60;;
64885;SDS011;51514;52.206;5.114;2022-07-04T00:49:04;9.40;;;5.60;;
64885;SDS011;51514;52.206;5.114;2022-07-04T00:51:30;11.15;;;5.38;;
64885;SDS011;51514;52.206;5.114;2022-07-04T00:53:56;10.10;;;5.13;;
64885;SDS011;51514;52.206;5.114;2022-07-04T00:56:22;7.20;;;5.75;;
64885;SDS011;51514;52.206;5.114;2022-07-04T00:58:48;9.27;;;6.22;;
64885;SDS011;51514;52.206;5.114;2022-07-04T01:01:15;11.45;;;6.32;;
64885;SDS011;51514;52.206;5.114;2022-07-04T01:03:41;9.82;;;5.97;;
64885;SDS011;51514;52.206;5.114;2022-07-04T01:06:06;12.25;;;6.10;;
64885;SDS011;51514;52.206;5.114;2022-07-04T01:08:37;9.67;;;6.13;;
64885;SDS011;51514;52.206;5.114;2022-07-04T01:11:05;8.85;;;5.93;;
64885;SDS011;51514;52.206;5.114;2022-07-04T01:13:31;11.98;;;6.90;;
64885;SDS011;51514;52.206;5.114;2022-07-04T01:15:56;9.55;;;6.40;;
64885;SDS011;51514;52.206;5.114;2022-07-04T01:18:22;8.95;;;6.40;;
64885;SDS011;51514;52.206;5.114;2022-07-04T01:20:47;7.85;;;5.78;;
64885;SDS011;51514;52.206;5.114;2022-07-04T01:23:13;9.27;;;6.03;;
64885;SDS011;51514;52.206;5.114;2022-07-04T01:25:38;9.95;;;5.88;;
64885;SDS011;51514;52.206;5.114;2022-07-04T01:28:04;12.52;;;6.63;;
64885;SDS011;51514;52.206;5.114;2022-07-04T01:30:32;8.23;;;5.32;;
64885;SDS011;51514;52.206;5.114;2022-07-04T01:32:57;8.75;;;5.70;;
64885;SDS011;51514;52.206;5.114;2022-07-04T01:35:22;8.15;;;5.70;;
64885;SDS011;51514;52.206;5.114;2022-07-04T01:37:48;10.77;;;5.50;;
64885;SDS011;51514;52.206;5.114;2022-07-04T01:40:14;11.73;;;6.72;;
64885;SDS011;51514;52.206;5.114;2022-07-04T01:42:40;7.60;;;5.63;;
64885;SDS011;51514;52.206;5.114;2022-07-04T01:45:06;6.78;;;6.00;;
64885;SDS011;51514;52.206;5.114;2022-07-04T01:47:32;9.27;;;5.70;;
64885;SDS011;51514;52.206;5.114;2022-07-04T01:49:58;11.02;;;6.40;;
64885;SDS011;51514;52.206;5.114;2022-07-04T01:52:24;8.10;;;6.25;;
64885;SDS011;51514;52.206;5.114;2022-07-04T01:54:49;9.25;;;6.05;;
64885;SDS011;51514;52.206;5.114;2022-07-04T01:57:15;10.32;;;6.55;;
64885;SDS011;51514;52.206;5.114;2022-07-04T01:59:40;9.30;;;5.68;;
64885;SDS011;51514;52.206;5.114;2022-07-04T02:02:24;11.70;;;6.05;;
64885;SDS011;51514;52.206;5.114;2022-07-04T02:04:49;7.55;;;5.28;;
64885;SDS011;51514;52.206;5.114;2022-07-04T02:07:15;9.10;;;5.53;;
64885;SDS011;51514;52.206;5.114;2022-07-04T02:09:41;7.72;;;5.55;;
64885;SDS011;51514;52.206;5.114;2022-07-04T02:12:06;7.22;;;5.03;;
64885;SDS011;51514;52.206;5.114;2022-07-04T02:14:50;6.90;;;5.13;;
64885;SDS011;51514;52.206;5.114;2022-07-04T02:17:15;9.80;;;5.18;;
64885;SDS011;51514;52.206;5.114;2022-07-04T02:19:41;11.60;;;6.43;;
64885;SDS011;51514;52.206;5.114;2022-07-04T02:22:06;10.10;;;5.72;;
64885;SDS011;51514;52.206;5.114;2022-07-04T02:24:31;8.93;;;5.60;;
64885;SDS011;51514;52.206;5.114;2022-07-04T02:26:57;9.93;;;5.78;;
64885;SDS011;51514;52.206;5.114;2022-07-04T02:29:22;7.35;;;5.45;;
64885;SDS011;51514;52.206;5.114;2022-07-04T02:31:47;7.93;;;6.22;;
64885;SDS011;51514;52.206;5.114;2022-07-04T02:34:13;11.30;;;5.68;;
64885;SDS011;51514;52.206;5.114;2022-07-04T02:36:38;10.43;;;5.82;;
64885;SDS011;51514;52.206;5.114;2022-07-04T02:39:04;8.40;;;6.13;;
64885;SDS011;51514;52.206;5.114;2022-07-04T02:41:30;8.13;;;5.25;;
64885;SDS011;51514;52.206;5.114;2022-07-04T02:43:56;7.97;;;5.82;;
64885;SDS011;51514;52.206;5.114;2022-07-04T02:46:22;9.90;;;5.47;;
64885;SDS011;51514;52.206;5.114;2022-07-04T02:48:47;8.57;;;4.80;;
64885;SDS011;51514;52.206;5.114;2022-07-04T02:51:13;8.45;;;5.13;;
64885;SDS011;51514;52.206;5.114;2022-07-04T02:53:39;10.07;;;5.45;;
64885;SDS011;51514;52.206;5.114;2022-07-04T02:56:04;9.60;;;6.40;;
64885;SDS011;51514;52.206;5.114;2022-07-04T02:58:30;7.68;;;5.65;;
64885;SDS011;51514;52.206;5.114;2022-07-04T03:00:56;13.73;;;6.70;;
64885;SDS011;51514;52.206;5.114;2022-07-04T03:03:22;9.52;;;5.53;;
64885;SDS011;51514;52.206;5.114;2022-07-04T03:05:47;9.25;;;5.60;;
64885;SDS011;51514;52.206;5.114;2022-07-04T03:08:12;7.82;;;5.22;;
64885;SDS011;51514;52.206;5.114;2022-07-04T03:10:38;8.15;;;4.25;;
64885;SDS011;51514;52.206;5.114;2022-07-04T03:13:03;6.78;;;4.78;;
64885;SDS011;51514;52.206;5.114;2022-07-04T03:15:28;7.30;;;4.85;;
64885;SDS011;51514;52.206;5.114;2022-07-04T03:17:54;8.70;;;5.40;;
64885;SDS011;51514;52.206;5.114;2022-07-04T03:20:19;5.88;;;4.50;;
64885;SDS011;51514;52.206;5.114;2022-07-04T03:22:44;7.78;;;4.80;;
64885;SDS011;51514;52.206;5.114;2022-07-04T03:25:10;11.85;;;6.00;;
64885;SDS011;51514;52.206;5.114;2022-07-04T03:27:35;8.18;;;5.82;;
64885;SDS011;51514;52.206;5.114;2022-07-04T03:30:00;15.15;;;5.32;;
64885;SDS011;51514;52.206;5.114;2022-07-04T03:32:26;6.40;;;4.10;;
64885;SDS011;51514;52.206;5.114;2022-07-04T03:34:51;6.03;;;4.63;;
64885;SDS011;51514;52.206;5.114;2022-07-04T03:37:16;8.93;;;5.45;;
64885;SDS011;51514;52.206;5.114;2022-07-04T03:39:42;10.93;;;5.35;;
64885;SDS011;51514;52.206;5.114;2022-07-04T03:42:07;10.57;;;6.40;;
64885;SDS011;51514;52.206;5.114;2022-07-04T03:44:32;8.50;;;5.40;;
64885;SDS011;51514;52.206;5.114;2022-07-04T03:46:58;7.60;;;6.03;;
64885;SDS011;51514;52.206;5.114;2022-07-04T03:49:24;9.23;;;6.95;;
64885;SDS011;51514;52.206;5.114;2022-07-04T03:51:49;13.32;;;7.00;;
64885;SDS011;51514;52.206;5.114;2022-07-04T03:54:15;9.57;;;6.10;;
64885;SDS011;51514;52.206;5.114;2022-07-04T03:56:40;12.35;;;8.02;;
64885;SDS011;51514;52.206;5.114;2022-07-04T03:59:05;9.82;;;6.53;;
64885;SDS011;51514;52.206;5.114;2022-07-04T04:01:31;10.88;;;7.10;;
64885;SDS011;51514;52.206;5.114;2022-07-04T04:03:56;14.27;;;7.53;;
64885;SDS011;51514;52.206;5.114;2022-07-04T04:06:40;14.45;;;7.65;;
64885;SDS011;51514;52.206;5.114;2022-07-04T04:09:05;11.55;;;8.15;;
64885;SDS011;51514;52.206;5.114;2022-07-04T04:11:30;14.20;;;8.63;;
64885;SDS011;51514;52.206;5.114;2022-07-04T04:13:56;12.13;;;7.60;;
64885;SDS011;51514;52.206;5.114;2022-07-04T04:16:21;12.93;;;8.52;;
64885;SDS011;51514;52.206;5.114;2022-07-04T04:18:47;13.70;;;8.75;;
64885;SDS011;51514;52.206;5.114;2022-07-04T04:21:12;13.82;;;8.70;;
64885;SDS011;51514;52.206;5.114;2022-07-04T04:23:37;17.52;;;9.57;;
64885;SDS011;51514;52.206;5.114;2022-07-04T04:26:03;14.70;;;9.57;;
64885;SDS011;51514;52.206;5.114;2022-07-04T04:28:28;13.07;;;8.77;;
64885;SDS011;51514;52.206;5.114;2022-07-04T04:30:53;14.85;;;9.13;;
64885;SDS011;51514;52.206;5.114;2022-07-04T04:33:19;15.98;;;8.85;;
64885;SDS011;51514;52.206;5.114;2022-07-04T04:35:44;16.23;;;9.00;;
64885;SDS011;51514;52.206;5.114;2022-07-04T04:38:09;20.05;;;9.98;;
64885;SDS011;51514;52.206;5.114;2022-07-04T04:40:35;13.75;;;9.07;;
64885;SDS011;51514;52.206;5.114;2022-07-04T04:43:00;16.13;;;9.73;;
64885;SDS011;51514;52.206;5.114;2022-07-04T04:45:25;14.23;;;9.30;;
64885;SDS011;51514;52.206;5.114;2022-07-04T04:47:51;14.73;;;9.40;;
64885;SDS011;51514;52.206;5.114;2022-07-04T04:50:18;17.85;;;10.20;;
64885;SDS011;51514;52.206;5.114;2022-07-04T04:52:44;15.82;;;10.45;;
64885;SDS011;51514;52.206;5.114;2022-07-04T04:55:10;18.08;;;10.57;;
64885;SDS011;51514;52.206;5.114;2022-07-04T04:57:35;21.35;;;11.45;;
64885;SDS011;51514;52.206;5.114;2022-07-04T05:00:01;20.45;;;11.73;;
64885;SDS011;51514;52.206;5.114;2022-07-04T05:02:29;20.58;;;10.82;;
64885;SDS011;51514;52.206;5.114;2022-07-04T05:04:54;15.88;;;10.98;;
64885;SDS011;51514;52.206;5.114;2022-07-04T05:07:20;16.05;;;11.38;;
64885;SDS011;51514;52.206;5.114;2022-07-04T05:09:45;22.60;;;12.23;;
64885;SDS011;51514;52.206;5.114;2022-07-04T05:12:10;20.25;;;12.60;;
64885;SDS011;51514;52.206;5.114;2022-07-04T05:14:36;17.77;;;11.10;;
64885;SDS011;51514;52.206;5.114;2022-07-04T05:17:01;21.40;;;11.75;;
64885;SDS011;51514;52.206;5.114;2022-07-04T05:19:27;20.67;;;10.60;;
64885;SDS011;51514;52.206;5.114;2022-07-04T05:21:54;16.30;;;10.85;;
64885;SDS011;51514;52.206;5.114;2022-07-04T05:24:19;17.60;;;10.32;;
64885;SDS011;51514;52.206;5.114;2022-07-04T05:26:45;18.05;;;9.40;;
64885;SDS011;51514;52.206;5.114;2022-07-04T05:29:10;19.67;;;8.70;;
64885;SDS011;51514;52.206;5.114;2022-07-04T05:31:36;16.83;;;8.52;;
64885;SDS011;51514;52.206;5.114;2022-07-04T05:34:01;18.42;;;7.85;;
64885;SDS011;51514;52.206;5.114;2022-07-04T05:36:27;12.32;;;7.40;;
64885;SDS011;51514;52.206;5.114;2022-07-04T05:38:53;15.77;;;8.20;;
64885;SDS011;51514;52.206;5.114;2022-07-04T05:41:18;14.55;;;7.75;;
64885;SDS011;51514;52.206;5.114;2022-07-04T05:43:43;14.95;;;6.88;;
64885;SDS011;51514;52.206;5.114;2022-07-04T05:46:09;15.88;;;6.90;;
64885;SDS011;51514;52.206;5.114;2022-07-04T05:48:35;11.82;;;6.25;;
64885;SDS011;51514;52.206;5.114;2022-07-04T05:51:00;12.32;;;6.97;;
64885;SDS011;51514;52.206;5.114;2022-07-04T05:53:27;9.63;;;6.38;;
64885;SDS011;51514;52.206;5.114;2022-07-04T05:55:52;12.85;;;6.40;;
64885;SDS011;51514;52.206;5.114;2022-07-04T05:58:17;15.32;;;5.88;;
64885;SDS011;51514;52.206;5.114;2022-07-04T06:00:43;14.02;;;6.15;;
64885;SDS011;51514;52.206;5.114;2022-07-04T06:03:08;15.75;;;6.45;;
64885;SDS011;51514;52.206;5.114;2022-07-04T06:05:34;17.50;;;6.43;;
64885;SDS011;51514;52.206;5.114;2022-07-04T06:07:59;11.18;;;5.72;;
64885;SDS011;51514;52.206;5.114;2022-07-04T06:10:25;10.75;;;5.90;;
64885;SDS011;51514;52.206;5.114;2022-07-04T06:12:50;13.65;;;6.38;;
64885;SDS011;51514;52.206;5.114;2022-07-04T06:15:16;16.20;;;6.40;;
64885;SDS011;51514;52.206;5.114;2022-07-04T06:17:41;19.02;;;6.55;;
64885;SDS011;51514;52.206;5.114;2022-07-04T06:20:07;14.98;;;5.90;;
64885;SDS011;51514;52.206;5.114;2022-07-04T06:22:41;14.50;;;5.40;;
64885;SDS011;51514;52.206;5.114;2022-07-04T06:25:11;13.35;;;6.22;;
64885;SDS011;51514;52.206;5.114;2022-07-04T06:27:37;13.50;;;6.00;;
64885;SDS011;51514;52.206;5.114;2022-07-04T06:30:03;13.82;;;5.85;;
64885;SDS011;51514;52.206;5.114;2022-07-04T06:32:30;13.60;;;5.82;;
64885;SDS011;51514;52.206;5.114;2022-07-04T06:34:55;16.98;;;6.53;;
64885;SDS011;51514;52.206;5.114;2022-07-04T06:37:39;16.00;;;5.63;;
64885;SDS011;51514;52.206;5.114;2022-07-04T06:40:05;10.80;;;5.22;;
64885;SDS011;51514;52.206;5.114;2022-07-04T06:42:31;9.50;;;5.28;;
64885;SDS011;51514;52.206;5.114;2022-07-04T06:44:56;11.32;;;4.93;;
64885;SDS011;51514;52.206;5.114;2022-07-04T06:47:21;15.90;;;4.95;;
64885;SDS011;51514;52.206;5.114;2022-07-04T06:49:47;16.13;;;5.15;;
64885;SDS011;51514;52.206;5.114;2022-07-04T06:52:12;9.88;;;4.20;;
64885;SDS011;51514;52.206;5.114;2022-07-04T06:54:37;9.13;;;4.60;;
64885;SDS011;51514;52.206;5.114;2022-07-04T06:57:03;11.88;;;4.35;;
64885;SDS011;51514;52.206;5.114;2022-07-04T06:59:28;13.25;;;4.85;;
64885;SDS011;51514;52.206;5.114;2022-07-04T07:01:53;10.90;;;4.07;;
64885;SDS011;51514;52.206;5.114;2022-07-04T07:04:19;10.93;;;4.25;;
64885;SDS011;51514;52.206;5.114;2022-07-04T07:06:44;9.82;;;4.13;;
64885;SDS011;51514;52.206;5.114;2022-07-04T07:09:09;9.52;;;3.95;;
64885;SDS011;51514;52.206;5.114;2022-07-04T07:11:35;9.40;;;3.90;;
64885;SDS011;51514;52.206;5.114;2022-07-04T07:14:00;7.97;;;3.10;;
64885;SDS011;51514;52.206;5.114;2022-07-04T07:16:26;9.68;;;4.28;;
64885;SDS011;51514;52.206;5.114;2022-07-04T07:18:52;8.20;;;3.72;;
64885;SDS011;51514;52.206;5.114;2022-07-04T07:21:17;8.93;;;4.13;;
64885;SDS011;51514;52.206;5.114;2022-07-04T07:23:42;8.77;;;4.18;;
64885;SDS011;51514;52.206;5.114;2022-07-04T07:26:08;10.68;;;4.07;;
64885;SDS011;51514;52.206;5.114;2022-07-04T07:28:35;8.20;;;4.20;;
64885;SDS011;51514;52.206;5.114;2022-07-04T07:31:01;11.38;;;3.90;;
64885;SDS011;51514;52.206;5.114;2022-07-04T07:33:27;6.68;;;4.03;;
64885;SDS011;51514;52.206;5.114;2022-07-04T07:35:52;7.05;;;3.55;;
64885;SDS011;51514;52.206;5.114;2022-07-04T07:38:18;7.55;;;3.10;;
64885;SDS011;51514;52.206;5.114;2022-07-04T07:40:43;7.78;;;2.50;;
64885;SDS011;51514;52.206;5.114;2022-07-04T07:43:08;5.13;;;2.38;;
64885;SDS011;51514;52.206;5.114;2022-07-04T07:45:34;7.97;;;2.78;;
64885;SDS011;51514;52.206;5.114;2022-07-04T07:47:59;4.75;;;2.40;;
64885;SDS011;51514;52.206;5.114;2022-07-04T07:50:24;5.93;;;2.70;;
64885;SDS011;51514;52.206;5.114;2022-07-04T07:52:50;5.35;;;2.50;;
64885;SDS011;51514;52.206;5.114;2022-07-04T07:55:15;7.65;;;2.85;;
64885;SDS011;51514;52.206;5.114;2022-07-04T07:57:40;4.47;;;2.33;;
64885;SDS011;51514;52.206;5.114;2022-07-04T08:00:06;5.45;;;2.47;;
64885;SDS011;51514;52.206;5.114;2022-07-04T08:02:32;8.02;;;2.83;;
64885;SDS011;51514;52.206;5.114;2022-07-04T08:05:16;6.07;;;2.78;;
64885;SDS011;51514;52.206;5.114;2022-07-04T08:07:41;4.18;;;2.30;;
64885;SDS011;51514;52.206;5.114;2022-07-04T08:10:06;4.82;;;2.53;;
64885;SDS011;51514;52.206;5.114;2022-07-04T08:12:33;6.38;;;2.60;;
64885;SDS011;51514;52.206;5.114;2022-07-04T08:14:58;6.80;;;2.72;;
64885;SDS011;51514;52.206;5.114;2022-07-04T08:17:23;5.68;;;3.00;;
64885;SDS011;51514;52.206;5.114;2022-07-04T08:19:49;6.68;;;3.17;;
64885;SDS011;51514;52.206;5.114;2022-07-04T08:22:15;6.18;;;2.50;;
64885;SDS011;51514;52.206;5.114;2022-07-04T08:24:40;5.53;;;2.35;;
64885;SDS011;51514;52.206;5.114;2022-07-04T08:27:05;6.50;;;2.50;;
64885;SDS011;51514;52.206;5.114;2022-07-04T08:29:31;4.63;;;2.60;;
64885;SDS011;51514;52.206;5.114;2022-07-04T08:31:57;4.38;;;2.20;;
64885;SDS011;51514;52.206;5.114;2022-07-04T08:34:22;3.55;;;2.05;;
64885;SDS011;51514;52.206;5.114;2022-07-04T08:36:48;4.38;;;2.33;;
64885;SDS011;51514;52.206;5.114;2022-07-04T08:39:13;5.35;;;2.00;;
64885;SDS011;51514;52.206;5.114;2022-07-04T08:41:39;3.05;;;1.92;;
64885;SDS011;51514;52.206;5.114;2022-07-04T08:44:06;3.72;;;1.77;;
64885;SDS011;51514;52.206;5.114;2022-07-04T08:46:36;3.38;;;1.98;;
64885;SDS011;51514;52.206;5.114;2022-07-04T08:49:05;3.42;;;1.95;;
64885;SDS011;51514;52.206;5.114;2022-07-04T08:51:57;2.83;;;1.65;;
64885;SDS011;51514;52.206;5.114;2022-07-04T08:54:26;2.60;;;2.08;;
64885;SDS011;51514;52.206;5.114;2022-07-04T08:57:12;4.68;;;2.20;;
64885;SDS011;51514;52.206;5.114;2022-07-04T08:59:57;3.35;;;1.90;;
64885;SDS011;51514;52.206;5.114;2022-07-04T09:02:23;4.82;;;1.92;;
64885;SDS011;51514;52.206;5.114;2022-07-04T09:04:52;4.65;;;2.10;;
64885;SDS011;51514;52.206;5.114;2022-07-04T09:07:18;3.97;;;1.55;;
64885;SDS011;51514;52.206;5.114;2022-07-04T09:09:43;3.55;;;1.95;;
64885;SDS011;51514;52.206;5.114;2022-07-04T09:12:10;4.50;;;1.98;;
64885;SDS011;51514;52.206;5.114;2022-07-04T09:14:36;2.92;;;1.95;;
64885;SDS011;51514;52.206;5.114;2022-07-04T09:17:02;3.67;;;1.90;;
64885;SDS011;51514;52.206;5.114;2022-07-04T09:19:28;2.47;;;1.80;;
64885;SDS011;51514;52.206;5.114;2022-07-04T09:21:54;1.98;;;1.67;;
64885;SDS011;51514;52.206;5.114;2022-07-04T09:27:30;3.45;;;2.20;;
64885;SDS011;51514;52.206;5.114;2022-07-04T09:29:56;3.38;;;1.92;;
64885;SDS011;51514;52.206;5.114;2022-07-04T09:35:13;3.50;;;2.13;;
64885;SDS011;51514;52.206;5.114;2022-07-04T09:37:40;3.60;;;1.95;;
64885;SDS011;51514;52.206;5.114;2022-07-04T09:40:36;4.00;;;1.60;;
64885;SDS011;51514;52.206;5.114;2022-07-04T09:45:55;4.03;;;1.60;;
64885;SDS011;51514;52.206;5.114;2022-07-04T09:48:22;2.05;;;1.60;;
64885;SDS011;51514;52.206;5.114;2022-07-04T09:50:48;2.67;;;1.52;;
64885;SDS011;51514;52.206;5.114;2022-07-04T09:53:14;3.22;;;1.63;;
64885;SDS011;51514;52.206;5.114;2022-07-04T09:55:39;2.10;;;1.25;;
64885;SDS011;51514;52.206;5.114;2022-07-04T09:58:05;4.93;;;1.95;;
64885;SDS011;51514;52.206;5.114;2022-07-04T10:00:33;2.15;;;1.42;;
64885;SDS011;51514;52.206;5.114;2022-07-04T10:05:47;3.10;;;1.67;;
64885;SDS011;51514;52.206;5.114;2022-07-04T10:08:26;3.22;;;1.65;;
64885;SDS011;51514;52.206;5.114;2022-07-04T10:10:51;3.10;;;1.58;;
64885;SDS011;51514;52.206;5.114;2022-07-04T10:13:21;2.42;;;1.60;;
64885;SDS011;51514;52.206;5.114;2022-07-04T10:15:47;4.90;;;1.48;;
64885;SDS011;51514;52.206;5.114;2022-07-04T10:18:14;4.32;;;1.63;;
64885;SDS011;51514;52.206;5.114;2022-07-04T10:20:43;3.67;;;1.50;;
64885;SDS011;51514;52.206;5.114;2022-07-04T10:23:09;1.77;;;1.13;;
64885;SDS011;51514;52.206;5.114;2022-07-04T10:25:35;4.13;;;1.30;;
64885;SDS011;51514;52.206;5.114;2022-07-04T10:28:00;3.90;;;1.50;;
64885;SDS011;51514;52.206;5.114;2022-07-04T10:30:27;3.45;;;1.23;;
64885;SDS011;51514;52.206;5.114;2022-07-04T10:32:54;1.90;;;1.10;;
64885;SDS011;51514;52.206;5.114;2022-07-04T10:38:12;5.00;;;1.70;;
64885;SDS011;51514;52.206;5.114;2022-07-04T10:51:47;2.30;;;1.65;;
64885;SDS011;51514;52.206;5.114;2022-07-04T10:54:18;3.13;;;1.30;;
64885;SDS011;51514;52.206;5.114;2022-07-04T11:01:53;4.70;;;1.73;;
64885;SDS011;51514;52.206;5.114;2022-07-04T11:04:52;5.72;;;1.42;;
64885;SDS011;51514;52.206;5.114;2022-07-04T11:17:50;4.05;;;1.45;;
64885;SDS011;51514;52.206;5.114;2022-07-04T11:20:17;3.50;;;1.45;;
64885;SDS011;51514;52.206;5.114;2022-07-04T11:22:45;4.72;;;1.50;;
64885;SDS011;51514;52.206;5.114;2022-07-04T11:25:11;3.50;;;1.60;;
64885;SDS011;51514;52.206;5.114;2022-07-04T11:27:37;4.28;;;1.23;;
64885;SDS011;51514;52.206;5.114;2022-07-04T11:30:03;2.92;;;1.30;;
64885;SDS011;51514;52.206;5.114;2022-07-04T11:32:29;4.30;;;1.35;;
64885;SDS011;51514;52.206;5.114;2022-07-04T11:34:56;4.80;;;1.42;;
64885;SDS011;51514;52.206;5.114;2022-07-04T11:37:22;2.92;;;1.15;;
64885;SDS011;51514;52.206;5.114;2022-07-04T11:39:51;2.40;;;1.13;;
64885;SDS011;51514;52.206;5.114;2022-07-04T11:42:17;3.83;;;1.20;;
64885;SDS011;51514;52.206;5.114;2022-07-04T11:45:01;2.60;;;1.15;;
64885;SDS011;51514;52.206;5.114;2022-07-04T11:50:03;6.05;;;1.95;;
64885;SDS011;51514;52.206;5.114;2022-07-04T11:52:38;4.05;;;1.45;;
64885;SDS011;51514;52.206;5.114;2022-07-04T11:55:07;3.55;;;1.50;;
64885;SDS011;51514;52.206;5.114;2022-07-04T11:57:44;2.33;;;1.48;;
64885;SDS011;51514;52.206;5.114;2022-07-04T12:00:12;1.63;;;0.88;;
64885;SDS011;51514;52.206;5.114;2022-07-04T12:02:39;3.20;;;1.42;;
64885;SDS011;51514;52.206;5.114;2022-07-04T12:05:07;2.38;;;1.35;;
64885;SDS011;51514;52.206;5.114;2022-07-04T12:07:34;1.37;;;1.20;;
64885;SDS011;51514;52.206;5.114;2022-07-04T12:10:15;3.13;;;1.07;;
64885;SDS011;51514;52.206;5.114;2022-07-04T12:13:03;2.70;;;1.33;;
64885;SDS011;51514;52.206;5.114;2022-07-04T12:15:41;1.55;;;1.08;;
64885;SDS011;51514;52.206;5.114;2022-07-04T12:18:15;5.90;;;1.30;;
64885;SDS011;51514;52.206;5.114;2022-07-04T12:20:42;2.25;;;1.23;;
64885;SDS011;51514;52.206;5.114;2022-07-04T12:23:08;4.25;;;1.70;;
64885;SDS011;51514;52.206;5.114;2022-07-04T12:25:35;3.03;;;1.33;;
64885;SDS011;51514;52.206;5.114;2022-07-04T12:28:08;1.77;;;1.23;;
64885;SDS011;51514;52.206;5.114;2022-07-04T12:30:54;3.42;;;1.35;;
64885;SDS011;51514;52.206;5.114;2022-07-04T12:33:26;4.35;;;1.33;;
64885;SDS011;51514;52.206;5.114;2022-07-04T12:36:00;3.55;;;1.40;;
64885;SDS011;51514;52.206;5.114;2022-07-04T12:40:56;2.85;;;1.25;;
64885;SDS011;51514;52.206;5.114;2022-07-04T12:43:43;3.65;;;1.10;;
64885;SDS011;51514;52.206;5.114;2022-07-04T12:46:09;1.48;;;1.20;;
64885;SDS011;51514;52.206;5.114;2022-07-04T12:48:54;6.15;;;1.70;;
64885;SDS011;51514;52.206;5.114;2022-07-04T12:51:41;4.22;;;1.38;;
64885;SDS011;51514;52.206;5.114;2022-07-04T12:54:06;3.70;;;1.30;;
64885;SDS011;51514;52.206;5.114;2022-07-04T12:56:34;5.80;;;1.33;;
64885;SDS011;51514;52.206;5.114;2022-07-04T12:59:02;3.20;;;1.33;;
64885;SDS011;51514;52.206;5.114;2022-07-04T13:01:28;1.85;;;1.13;;
64885;SDS011;51514;52.206;5.114;2022-07-04T13:03:54;2.47;;;1.30;;
64885;SDS011;51514;52.206;5.114;2022-07-04T13:06:19;2.53;;;1.30;;
64885;SDS011;51514;52.206;5.114;2022-07-04T13:08:45;3.53;;;1.38;;
64885;SDS011;51514;52.206;5.114;2022-07-04T13:11:10;2.33;;;1.35;;
64885;SDS011;51514;52.206;5.114;2022-07-04T13:13:54;3.05;;;1.27;;
64885;SDS011;51514;52.206;5.114;2022-07-04T13:16:19;6.75;;;1.50;;
64885;SDS011;51514;52.206;5.114;2022-07-04T13:18:45;6.00;;;1.55;;
64885;SDS011;51514;52.206;5.114;2022-07-04T13:21:10;2.28;;;1.10;;
64885;SDS011;51514;52.206;5.114;2022-07-04T13:23:36;1.67;;;1.35;;
64885;SDS011;51514;52.206;5.114;2022-07-04T13:26:02;3.45;;;1.30;;
64885;SDS011;51514;52.206;5.114;2022-07-04T13:28:28;5.38;;;1.52;;
64885;SDS011;51514;52.206;5.114;2022-07-04T13:30:53;3.15;;;1.20;;
64885;SDS011;51514;52.206;5.114;2022-07-04T13:33:18;3.50;;;1.23;;
64885;SDS011;51514;52.206;5.114;2022-07-04T13:35:44;3.63;;;1.65;;
64885;SDS011;51514;52.206;5.114;2022-07-04T13:38:09;2.58;;;1.20;;
64885;SDS011;51514;52.206;5.114;2022-07-04T13:40:34;3.55;;;1.40;;
64885;SDS011;51514;52.206;5.114;2022-07-04T13:43:00;8.80;;;1.98;;
64885;SDS011;51514;52.206;5.114;2022-07-04T13:45:26;2.90;;;1.38;;
64885;SDS011;51514;52.206;5.114;2022-07-04T13:47:52;4.03;;;1.40;;
64885;SDS011;51514;52.206;5.114;2022-07-04T13:50:18;4.50;;;1.63;;
64885;SDS011;51514;52.206;5.114;2022-07-04T13:52:43;4.70;;;1.70;;
64885;SDS011;51514;52.206;5.114;2022-07-04T13:55:09;4.78;;;1.45;;
64885;SDS011;51514;52.206;5.114;2022-07-04T13:57:35;2.67;;;1.55;;
64885;SDS011;51514;52.206;5.114;2022-07-04T14:00:01;3.67;;;1.45;;
64885;SDS011;51514;52.206;5.114;2022-07-04T14:02:26;4.90;;;1.55;;
64885;SDS011;51514;52.206;5.114;2022-07-04T14:04:52;3.90;;;1.52;;
64885;SDS011;51514;52.206;5.114;2022-07-04T14:07:17;2.10;;;1.27;;
64885;SDS011;51514;52.206;5.114;2022-07-04T14:09:42;2.85;;;1.48;;
64885;SDS011;51514;52.206;5.114;2022-07-04T14:12:08;2.88;;;1.20;;
64885;SDS011;51514;52.206;5.114;2022-07-04T14:14:34;3.50;;;1.23;;
64885;SDS011;51514;52.206;5.114;2022-07-04T14:16:59;4.30;;;1.30;;
64885;SDS011;51514;52.206;5.114;2022-07-04T14:19:25;2.30;;;1.45;;
64885;SDS011;51514;52.206;5.114;2022-07-04T14:21:50;4.82;;;1.50;;
64885;SDS011;51514;52.206;5.114;2022-07-04T14:24:16;5.07;;;1.13;;
64885;SDS011;51514;52.206;5.114;2022-07-04T14:26:42;5.85;;;1.92;;
64885;SDS011;51514;52.206;5.114;2022-07-04T14:29:08;2.47;;;1.40;;
64885;SDS011;51514;52.206;5.114;2022-07-04T14:31:33;5.18;;;1.60;;
64885;SDS011;51514;52.206;5.114;2022-07-04T14:33:58;3.42;;;1.63;;
64885;SDS011;51514;52.206;5.114;2022-07-04T14:36:24;4.63;;;1.95;;
64885;SDS011;51514;52.206;5.114;2022-07-04T14:38:49;3.20;;;1.10;;
64885;SDS011;51514;52.206;5.114;2022-07-04T14:41:14;3.88;;;1.30;;
64885;SDS011;51514;52.206;5.114;2022-07-04T14:43:40;3.05;;;1.30;;
64885;SDS011;51514;52.206;5.114;2022-07-04T14:46:08;3.60;;;1.77;;
64885;SDS011;51514;52.206;5.114;2022-07-04T14:48:34;3.03;;;1.33;;
64885;SDS011;51514;52.206;5.114;2022-07-04T14:51:01;4.20;;;1.60;;
64885;SDS011;51514;52.206;5.114;2022-07-04T14:53:26;3.13;;;1.35;;
64885;SDS011;51514;52.206;5.114;2022-07-04T14:55:52;4.25;;;1.88;;
64885;SDS011;51514;52.206;5.114;2022-07-04T14:58:18;3.25;;;1.50;;
64885;SDS011;51514;52.206;5.114;2022-07-04T15:00:43;3.17;;;1.48;;
64885;SDS011;51514;52.206;5.114;2022-07-04T15:03:09;2.90;;;1.38;;
64885;SDS011;51514;52.206;5.114;2022-07-04T15:05:34;3.10;;;1.42;;
64885;SDS011;51514;52.206;5.114;2022-07-04T15:07:59;3.88;;;1.52;;
64885;SDS011;51514;52.206;5.114;2022-07-04T15:10:25;4.28;;;1.23;;
64885;SDS011;51514;52.206;5.114;2022-07-04T15:12:50;4.20;;;1.20;;
64885;SDS011;51514;52.206;5.114;2022-07-04T15:15:16;3.88;;;1.65;;
64885;SDS011;51514;52.206;5.114;2022-07-04T15:17:41;8.23;;;2.13;;
64885;SDS011;51514;52.206;5.114;2022-07-04T15:20:07;3.03;;;1.33;;
64885;SDS011;51514;52.206;5.114;2022-07-04T15:22:52;3.65;;;1.38;;
64885;SDS011;51514;52.206;5.114;2022-07-04T15:25:36;3.83;;;1.75;;
64885;SDS011;51514;52.206;5.114;2022-07-04T15:28:01;2.50;;;1.48;;